Terminal Aerodrome Forecast
Issued by NWS

Home | Current Version | Previous Version | Graphics & Text | Print | Product List | Glossary On
Versions: 1 2 3 4 5 6 7 8 9 10 11 12 13 14 15 16 17 18 19 20 21
000
FTUS43 KTOP 242000 AAA
TAFFOE
TAF AMD
KFOE 242059Z 2421/2518 20011KT P6SM VCSH SCT023 BKN080
     FM250100 19007KT P6SM VCSH BKN020 BKN050
     FM250600 19007KT P6SM SCT020 BKN050=

USA.gov is the U.S. government's official web portal to all federal, state and local government web resources and services.